createdAt,value
2022-08-27T00:01:54.433Z,85.96
2022-08-27T00:04:21.544Z,85.05
2022-08-27T00:06:48.917Z,84.12
2022-08-27T00:09:26.576Z,84.57
2022-08-27T00:11:57.675Z,85.21
2022-08-27T00:14:26.886Z,84.80
2022-08-27T00:16:54.901Z,85.00
2022-08-27T00:19:22.742Z,84.50
2022-08-27T00:21:49.965Z,83.88
2022-08-27T00:24:17.042Z,84.52
2022-08-27T00:26:44.527Z,84.59
2022-08-27T00:29:14.528Z,84.62
2022-08-27T00:31:43.735Z,85.72
2022-08-27T00:34:13.104Z,85.43
2022-08-27T00:36:41.477Z,85.45
2022-08-27T00:39:11.712Z,85.04
2022-08-27T00:41:43.517Z,85.54
2022-08-27T00:44:13.745Z,85.56
2022-08-27T00:46:56.470Z,85.33
2022-08-27T00:50:14.333Z,84.88
2022-08-27T00:52:55.223Z,85.14
2022-08-27T00:55:28.674Z,84.83
2022-08-27T00:58:21.491Z,85.12
2022-08-27T01:00:49.116Z,85.65
2022-08-27T01:03:19.083Z,85.53
2022-08-27T01:05:52.533Z,85.70
2022-08-27T01:08:25.602Z,85.60
2022-08-27T01:10:55.021Z,85.39
2022-08-27T01:13:54.098Z,85.93
2022-08-27T01:16:26.981Z,86.25
2022-08-27T01:18:56.494Z,87.14
2022-08-27T01:21:43.852Z,86.11
2022-08-27T01:24:50.939Z,86.45
2022-08-27T01:27:25.540Z,86.94
2022-08-27T01:29:58.190Z,88.21
2022-08-27T01:32:32.446Z,87.83
2022-08-27T01:35:01.281Z,87.69
2022-08-27T01:37:31.629Z,86.83
2022-08-27T01:40:02.091Z,86.53
2022-08-27T01:42:39.421Z,86.65
2022-08-27T01:45:25.089Z,88.66
2022-08-27T01:47:55.108Z,89.35
2022-08-27T01:50:36.010Z,89.91
2022-08-27T01:53:25.093Z,89.70
2022-08-27T01:55:53.502Z,88.80
2022-08-27T01:58:25.607Z,88.62
2022-08-27T02:01:00.310Z,88.07
2022-08-27T02:03:27.864Z,87.88
2022-08-27T02:05:55.219Z,88.57
2022-08-27T02:08:22.833Z,88.08
2022-08-27T02:10:52.715Z,87.53
2022-08-27T02:13:22.385Z,87.73
2022-08-27T02:15:49.682Z,88.01
2022-08-27T02:18:19.659Z,88.45
2022-08-27T02:20:50.128Z,88.94
2022-08-27T02:23:20.742Z,88.32
2022-08-27T02:25:47.871Z,87.49
2022-08-27T02:28:18.426Z,88.36
2022-08-27T02:30:45.833Z,87.59
2022-08-27T02:33:16.736Z,87.45
2022-08-27T02:35:44.891Z,86.78
2022-08-27T02:38:14.164Z,86.77
2022-08-27T02:40:41.512Z,87.20
2022-08-27T02:43:09.077Z,88.28
2022-08-27T02:45:37.939Z,88.36
2022-08-27T02:48:08.079Z,87.79
2022-08-27T02:50:36.087Z,88.30
2022-08-27T02:53:05.978Z,88.09
2022-08-27T02:55:36.314Z,88.12
2022-08-27T02:58:04.843Z,87.94
2022-08-27T03:00:31.960Z,87.58
2022-08-27T03:03:02.408Z,86.84
2022-08-27T03:05:32.038Z,86.83
2022-08-27T03:07:59.854Z,86.96
2022-08-27T03:10:30.075Z,86.63
2022-08-27T03:12:59.851Z,86.78
2022-08-27T03:15:30.475Z,87.02
2022-08-27T03:18:21.825Z,87.37
2022-08-27T03:20:57.715Z,87.03
2022-08-27T03:23:33.365Z,88.04
2022-08-27T03:26:08.002Z,87.93
2022-08-27T03:28:36.350Z,88.12
2022-08-27T03:31:09.098Z,88.73
2022-08-27T03:33:39.450Z,88.44
2022-08-27T03:36:08.931Z,88.61
2022-08-27T03:38:40.679Z,88.65
2022-08-27T03:41:07.887Z,89.11
2022-08-27T03:43:37.459Z,87.96
2022-08-27T03:46:08.574Z,87.62
2022-08-27T03:48:36.523Z,87.30
2022-08-27T03:51:10.335Z,87.65
2022-08-27T03:53:44.337Z,87.09
2022-08-27T03:56:11.703Z,87.06
2022-08-27T03:58:42.396Z,87.03
2022-08-27T04:01:12.017Z,86.85
2022-08-27T04:03:41.435Z,86.98
2022-08-27T04:06:08.964Z,87.60
2022-08-27T04:08:38.402Z,87.86
2022-08-27T04:11:12.912Z,86.57
2022-08-27T04:13:41.207Z,86.95
2022-08-27T04:16:08.445Z,87.55
2022-08-27T04:18:35.723Z,87.11
2022-08-27T04:21:14.632Z,86.42
2022-08-27T04:23:44.938Z,87.23
2022-08-27T04:26:12.754Z,88.16
2022-08-27T04:28:42.661Z,86.85
2022-08-27T04:31:20.151Z,86.20
2022-08-27T04:33:51.253Z,86.04
2022-08-27T04:36:23.795Z,86.91
2022-08-27T04:38:53.365Z,86.71
2022-08-27T04:41:21.254Z,87.57
2022-08-27T04:44:10.708Z,86.20
2022-08-27T04:46:41.019Z,86.50
2022-08-27T04:49:16.173Z,86.15
2022-08-27T04:51:43.505Z,86.30
2022-08-27T04:54:11.174Z,85.75
2022-08-27T04:56:39.273Z,85.27
2022-08-27T04:59:10.160Z,84.37
2022-08-27T05:01:39.690Z,84.19
2022-08-27T05:04:13.456Z,84.36
2022-08-27T05:06:45.507Z,83.70
2022-08-27T05:09:15.410Z,84.44
2022-08-27T05:11:47.153Z,83.82
2022-08-27T05:14:16.356Z,83.96
2022-08-27T05:16:46.957Z,83.95
2022-08-27T05:19:16.684Z,84.43
2022-08-27T05:21:54.018Z,85.01
2022-08-27T05:24:25.669Z,86.20
2022-08-27T05:26:56.195Z,85.15
2022-08-27T05:29:28.793Z,84.46
2022-08-27T05:31:56.483Z,85.72
2022-08-27T05:34:26.186Z,85.48
2022-08-27T05:36:56.592Z,85.81
2022-08-27T05:39:25.844Z,85.23
2022-08-27T05:41:57.559Z,84.79
2022-08-27T05:44:42.489Z,84.64
2022-08-27T05:47:12.158Z,83.42
2022-08-27T05:49:39.209Z,84.92
2022-08-27T05:52:11.914Z,84.31
2022-08-27T05:54:39.958Z,83.88
2022-08-27T05:57:11.675Z,84.22
2022-08-27T05:59:57.543Z,83.28
2022-08-27T06:02:24.771Z,82.84
2022-08-27T06:04:55.007Z,82.35
2022-08-27T06:07:24.221Z,82.61
2022-08-27T06:09:53.260Z,82.62
2022-08-27T06:12:20.514Z,83.39
2022-08-27T06:14:55.624Z,84.20
2022-08-27T06:17:22.709Z,83.97
2022-08-27T06:19:51.829Z,83.70
2022-08-27T06:22:18.982Z,83.73
2022-08-27T06:24:46.149Z,84.62
2022-08-27T06:27:17.086Z,84.16
2022-08-27T06:29:47.209Z,84.99
2022-08-27T06:32:15.202Z,85.08
2022-08-27T06:34:42.392Z,85.01
2022-08-27T06:37:09.600Z,84.85
2022-08-27T06:39:40.491Z,84.01
2022-08-27T06:42:12.539Z,83.83
2022-08-27T06:44:42.271Z,82.84
2022-08-27T06:47:12.008Z,82.10
2022-08-27T06:49:46.175Z,82.82
2022-08-27T06:52:15.013Z,82.05
2022-08-27T06:54:41.972Z,81.64
2022-08-27T06:57:11.076Z,81.08
2022-08-27T06:59:38.795Z,80.52
2022-08-27T07:02:07.756Z,81.29
2022-08-27T07:04:34.772Z,80.06
2022-08-27T07:07:05.922Z,80.69
2022-08-27T07:09:34.805Z,81.46
2022-08-27T07:12:02.462Z,80.38
2022-08-27T07:14:37.792Z,79.58
2022-08-27T07:17:10.831Z,79.39
2022-08-27T07:19:42.848Z,78.78
2022-08-27T07:22:12.989Z,80.00
2022-08-27T07:24:40.156Z,79.37
2022-08-27T07:27:08.291Z,79.37
2022-08-27T07:29:35.559Z,78.13
2022-08-27T07:32:02.923Z,78.51
2022-08-27T07:34:30.075Z,78.38
2022-08-27T07:36:57.116Z,78.28
2022-08-27T07:39:24.257Z,78.41
2022-08-27T07:42:15.995Z,78.82
2022-08-27T07:44:45.692Z,78.64
2022-08-27T07:47:14.875Z,78.30
2022-08-27T07:49:44.292Z,78.91
2022-08-27T07:52:11.975Z,79.01
2022-08-27T07:54:39.293Z,78.31
2022-08-27T07:57:06.540Z,78.30
2022-08-27T07:59:33.626Z,78.65
2022-08-27T08:02:03.360Z,79.39
2022-08-27T08:04:30.683Z,80.38
2022-08-27T08:07:00.295Z,79.62
2022-08-27T08:09:27.534Z,78.83
2022-08-27T08:11:54.866Z,78.52
2022-08-27T08:14:22.301Z,78.85
2022-08-27T08:16:52.301Z,78.26
2022-08-27T08:19:22.279Z,78.11
2022-08-27T08:21:56.495Z,79.07
2022-08-27T08:24:27.036Z,80.40
2022-08-27T08:26:56.145Z,79.57
2022-08-27T08:29:30.227Z,79.92
2022-08-27T08:31:57.265Z,79.01
2022-08-27T08:34:24.259Z,79.50
2022-08-27T08:36:54.894Z,79.66
2022-08-27T08:39:26.366Z,79.23
2022-08-27T08:42:00.464Z,79.27
2022-08-27T08:44:46.321Z,78.02
2022-08-27T08:47:45.954Z,78.63
2022-08-27T08:50:30.876Z,79.42
2022-08-27T08:53:21.191Z,79.44
2022-08-27T08:55:59.385Z,79.43
2022-08-27T08:58:53.297Z,79.75
2022-08-27T09:01:21.841Z,79.38
2022-08-27T09:03:58.474Z,78.17
2022-08-27T09:06:43.432Z,77.89
2022-08-27T09:09:49.347Z,76.16
2022-08-27T09:12:25.022Z,75.38
2022-08-27T09:15:19.210Z,75.96
2022-08-27T09:17:47.752Z,75.64
2022-08-27T09:20:22.786Z,74.40
2022-08-27T09:23:14.945Z,74.75
2022-08-27T09:25:43.612Z,74.49
2022-08-27T09:28:36.482Z,74.95
2022-08-27T09:31:13.541Z,75.36
2022-08-27T09:33:56.258Z,75.13
2022-08-27T09:36:24.586Z,74.62
2022-08-27T09:39:01.858Z,74.81
2022-08-27T09:41:36.716Z,74.11
2022-08-27T09:44:11.951Z,74.79
2022-08-27T09:46:58.039Z,74.33
2022-08-27T09:49:26.957Z,73.64
2022-08-27T09:51:55.805Z,74.88
2022-08-27T09:54:45.036Z,74.90
2022-08-27T09:57:15.153Z,76.21
2022-08-27T09:59:57.593Z,77.15
2022-08-27T10:02:28.171Z,77.34
2022-08-27T10:05:00.999Z,77.91
2022-08-27T10:07:53.913Z,77.80
2022-08-27T10:10:55.478Z,77.17
2022-08-27T10:13:33.817Z,76.00
2022-08-27T10:16:26.381Z,76.51
2022-08-27T10:19:20.388Z,76.09
2022-08-27T10:22:19.185Z,75.31
2022-08-27T10:25:07.155Z,76.08
2022-08-27T10:28:05.065Z,76.42
2022-08-27T10:30:57.163Z,76.56
2022-08-27T10:33:59.683Z,76.40
2022-08-27T10:36:44.634Z,75.69
2022-08-27T10:39:42.970Z,75.09
2022-08-27T10:42:21.671Z,76.09
2022-08-27T10:45:12.359Z,75.47
2022-08-27T10:47:57.386Z,75.73
2022-08-27T10:51:02.066Z,76.29
2022-08-27T10:53:55.511Z,76.39
2022-08-27T10:56:32.401Z,77.24
2022-08-27T10:59:16.656Z,76.67
2022-08-27T11:02:15.221Z,77.30
2022-08-27T11:04:53.106Z,77.03
2022-08-27T11:07:33.545Z,76.67
2022-08-27T11:10:06.159Z,77.89
2022-08-27T11:12:41.440Z,79.56
2022-08-27T11:15:42.116Z,78.07
2022-08-27T11:18:22.184Z,76.56
2022-08-27T11:21:05.819Z,75.54
2022-08-27T11:23:58.235Z,75.61
2022-08-27T11:26:27.843Z,77.78
2022-08-27T11:29:00.435Z,78.41
2022-08-27T11:31:53.242Z,76.90
2022-08-27T11:34:39.795Z,77.15
2022-08-27T11:37:30.589Z,76.78
2022-08-27T11:40:54.262Z,76.52
2022-08-27T11:43:26.594Z,76.03
2022-08-27T11:46:06.780Z,74.88
2022-08-27T11:48:57.702Z,74.18
2022-08-27T11:51:35.810Z,72.88
2022-08-27T11:54:13.427Z,72.42
2022-08-27T11:56:43.529Z,70.93
2022-08-27T11:59:23.811Z,71.99
2022-08-27T12:01:56.974Z,71.01
2022-08-27T12:04:44.322Z,71.52
2022-08-27T12:07:14.313Z,71.65
2022-08-27T12:09:56.202Z,71.92
2022-08-27T12:12:53.176Z,72.03
2022-08-27T12:15:35.142Z,72.25
2022-08-27T12:18:34.074Z,71.12
2022-08-27T12:21:39.551Z,70.22
2022-08-27T12:24:21.445Z,70.86
2022-08-27T12:27:15.670Z,71.13
2022-08-27T12:29:56.476Z,69.86
2022-08-27T12:32:30.668Z,68.89
2022-08-27T12:35:07.056Z,69.14
2022-08-27T12:38:15.957Z,68.48
2022-08-27T12:41:03.842Z,69.27
2022-08-27T12:43:35.666Z,69.71
2022-08-27T12:46:18.040Z,69.54
2022-08-27T12:48:48.283Z,68.72
2022-08-27T12:51:33.327Z,68.22
2022-08-27T12:54:47.593Z,67.86
2022-08-27T12:57:46.180Z,67.20
2022-08-27T13:00:26.262Z,65.21
2022-08-27T13:03:35.701Z,65.02
2022-08-27T13:06:02.766Z,64.50
2022-08-27T13:08:34.647Z,64.39
2022-08-27T13:11:18.140Z,64.30
2022-08-27T13:13:47.774Z,64.18
2022-08-27T13:16:20.273Z,63.81
2022-08-27T13:18:51.831Z,63.40
2022-08-27T13:21:27.545Z,62.55
2022-08-27T13:24:00.675Z,62.79
2022-08-27T13:26:34.062Z,62.75
2022-08-27T13:29:05.902Z,61.31
2022-08-27T13:31:36.622Z,61.51
2022-08-27T13:34:06.191Z,62.04
2022-08-27T13:36:55.739Z,61.33
2022-08-27T13:39:23.114Z,59.47
2022-08-27T13:41:52.592Z,59.03
2022-08-27T13:44:32.964Z,58.45
2022-08-27T13:47:03.946Z,56.64
2022-08-27T13:49:40.156Z,57.07
2022-08-27T13:52:28.580Z,57.23
2022-08-27T13:55:16.447Z,56.93
2022-08-27T13:57:50.380Z,55.80
2022-08-27T14:00:29.787Z,53.74
2022-08-27T14:02:58.849Z,52.53
2022-08-27T14:05:26.897Z,51.16
2022-08-27T14:08:01.075Z,50.53
2022-08-27T14:10:44.286Z,49.38
2022-08-27T14:13:21.087Z,50.12
2022-08-27T14:15:54.670Z,49.99
2022-08-27T14:21:25.854Z,48.42
2022-08-27T14:23:54.031Z,46.38
2022-08-27T14:26:21.433Z,46.64
2022-08-27T14:28:51.154Z,47.21
2022-08-27T14:31:23.232Z,46.88
2022-08-27T14:33:56.795Z,47.12
2022-08-27T14:36:37.416Z,46.36
2022-08-27T14:39:08.643Z,47.88
2022-08-27T14:41:36.104Z,47.90
2022-08-27T14:44:03.355Z,48.54
2022-08-27T14:46:36.270Z,48.47
2022-08-27T14:49:22.118Z,47.90
2022-08-27T14:51:49.266Z,47.97
2022-08-27T14:54:16.197Z,47.21
2022-08-27T14:56:43.266Z,46.33
2022-08-27T14:59:10.230Z,45.52
2022-08-27T15:01:39.955Z,46.40
2022-08-27T15:04:07.770Z,46.78
2022-08-27T15:06:34.828Z,46.78
2022-08-27T15:09:01.864Z,47.09
2022-08-27T15:11:35.321Z,46.11
2022-08-27T15:14:09.331Z,46.30
2022-08-27T15:16:42.521Z,46.29
2022-08-27T15:19:16.422Z,46.64
2022-08-27T15:21:49.204Z,47.96
2022-08-27T15:24:24.925Z,47.60
2022-08-27T15:26:57.339Z,47.55
2022-08-27T15:29:27.587Z,48.35
2022-08-27T15:31:54.563Z,48.33
2022-08-27T15:34:21.744Z,48.11
2022-08-27T15:36:50.950Z,48.09
2022-08-27T15:39:17.850Z,47.87
2022-08-27T15:42:05.703Z,47.72
2022-08-27T15:44:32.057Z,47.50
2022-08-27T15:46:59.111Z,47.65
2022-08-27T15:49:30.797Z,47.97
2022-08-27T15:52:00.819Z,47.30
2022-08-27T15:54:28.334Z,47.62
2022-08-27T15:57:00.638Z,48.08
2022-08-27T15:59:28.030Z,48.68
2022-08-27T16:01:58.004Z,49.64
2022-08-27T16:04:24.912Z,49.04
2022-08-27T16:06:51.811Z,48.38
2022-08-27T16:09:19.282Z,48.34
2022-08-27T16:11:46.193Z,48.27
2022-08-27T16:14:17.715Z,48.12
2022-08-27T16:16:50.019Z,49.26
2022-08-27T16:19:19.810Z,49.16
2022-08-27T16:21:47.840Z,49.89
2022-08-27T16:24:19.082Z,49.00
2022-08-27T16:26:49.363Z,48.67
2022-08-27T16:29:16.550Z,48.56
2022-08-27T16:31:43.754Z,49.55
2022-08-27T16:34:18.376Z,49.36
2022-08-27T16:36:49.847Z,48.63
2022-08-27T16:39:16.755Z,49.07
2022-08-27T16:41:43.700Z,48.63
2022-08-27T16:44:11.000Z,48.53
2022-08-27T16:46:38.294Z,48.65
2022-08-27T16:49:26.149Z,48.94
2022-08-27T16:51:53.154Z,48.92
2022-08-27T16:54:21.398Z,49.13
2022-08-27T16:56:50.842Z,50.72
2022-08-27T16:59:21.209Z,51.72
2022-08-27T17:01:54.245Z,51.76
2022-08-27T17:04:31.224Z,50.94
2022-08-27T17:07:02.353Z,52.03
2022-08-27T17:09:30.563Z,52.57
2022-08-27T17:11:58.732Z,52.39
2022-08-27T17:14:26.796Z,52.93
2022-08-27T17:16:54.063Z,52.41
2022-08-27T17:19:26.151Z,53.33
2022-08-27T17:21:54.823Z,53.80
2022-08-27T17:24:22.293Z,54.14
2022-08-27T17:26:51.472Z,54.38
2022-08-27T17:29:19.754Z,54.08
2022-08-27T17:31:46.673Z,54.62
2022-08-27T17:34:19.519Z,54.03
2022-08-27T17:36:52.101Z,54.23
2022-08-27T17:39:22.644Z,55.09
2022-08-27T17:41:53.388Z,54.53
2022-08-27T17:44:35.677Z,55.03
2022-08-27T17:47:08.200Z,54.75
2022-08-27T17:49:36.202Z,55.31
2022-08-27T17:52:10.400Z,55.59
2022-08-27T17:54:46.414Z,55.93
2022-08-27T17:57:36.162Z,56.35
2022-08-27T18:00:14.323Z,56.49
2022-08-27T18:02:48.126Z,56.52
2022-08-27T18:05:18.270Z,56.16
2022-08-27T18:07:47.109Z,56.58
2022-08-27T18:10:23.795Z,56.68
2022-08-27T18:12:55.458Z,56.58
2022-08-27T18:15:32.103Z,56.63
2022-08-27T18:18:01.965Z,56.45
2022-08-27T18:20:33.132Z,57.58
2022-08-27T18:23:00.335Z,57.92
2022-08-27T18:25:36.331Z,58.18
2022-08-27T18:28:08.230Z,57.64
2022-08-27T18:30:39.585Z,57.68
2022-08-27T18:33:09.091Z,58.75
2022-08-27T18:35:37.786Z,58.56
2022-08-27T18:38:09.633Z,57.99
2022-08-27T18:40:51.778Z,57.98
2022-08-27T18:43:21.294Z,58.69
2022-08-27T18:45:50.944Z,58.73
2022-08-27T18:48:22.463Z,58.70
2022-08-27T18:50:58.490Z,58.86
2022-08-27T18:53:31.000Z,58.84
2022-08-27T18:55:58.851Z,59.14
2022-08-27T18:58:26.646Z,59.72
2022-08-27T19:01:02.147Z,60.01
2022-08-27T19:03:35.707Z,59.93
2022-08-27T19:06:08.862Z,60.32
2022-08-27T19:08:40.364Z,60.31
2022-08-27T19:11:10.171Z,60.26
2022-08-27T19:13:37.542Z,60.95
2022-08-27T19:16:33.434Z,60.59
2022-08-27T19:19:00.528Z,60.50
2022-08-27T19:21:27.445Z,60.47
2022-08-27T19:23:57.950Z,61.18
2022-08-27T19:26:25.877Z,61.25
2022-08-27T19:28:56.282Z,61.60
2022-08-27T19:31:23.365Z,61.55
2022-08-27T19:33:52.870Z,61.14
2022-08-27T19:36:23.483Z,62.49
2022-08-27T19:38:54.207Z,62.60
2022-08-27T19:41:26.062Z,62.23
2022-08-27T19:43:57.281Z,62.60
2022-08-27T19:46:28.957Z,63.02
2022-08-27T19:48:58.136Z,63.05
2022-08-27T19:51:25.293Z,63.25
2022-08-27T19:53:56.693Z,62.72
2022-08-27T19:56:23.695Z,62.70
2022-08-27T19:58:56.593Z,63.76
2022-08-27T20:01:25.659Z,63.38
2022-08-27T20:03:52.617Z,63.42
2022-08-27T20:06:27.117Z,64.18
2022-08-27T20:08:57.223Z,63.19
2022-08-27T20:11:24.239Z,63.34
2022-08-27T20:13:51.210Z,64.28
2022-08-27T20:16:20.413Z,64.26
2022-08-27T20:18:50.278Z,64.90
2022-08-27T20:21:17.219Z,64.92
2022-08-27T20:23:44.168Z,64.79
2022-08-27T20:26:14.114Z,65.12
2022-08-27T20:28:41.719Z,65.25
2022-08-27T20:31:09.106Z,65.11
2022-08-27T20:33:36.192Z,65.49
2022-08-27T20:36:06.182Z,65.76
2022-08-27T20:38:33.329Z,66.52
2022-08-27T20:41:02.985Z,65.98
2022-08-27T20:43:32.081Z,66.17
2022-08-27T20:45:59.946Z,65.65
2022-08-27T20:48:29.924Z,66.29
2022-08-27T20:50:59.150Z,66.21
2022-08-27T20:53:28.388Z,66.02
2022-08-27T20:55:57.418Z,66.25
2022-08-27T20:58:46.083Z,66.58
2022-08-27T21:01:14.577Z,67.00
2022-08-27T21:03:44.481Z,67.83
2022-08-27T21:06:11.515Z,67.65
2022-08-27T21:08:39.829Z,67.77
2022-08-27T21:11:16.091Z,68.21
2022-08-27T21:13:55.797Z,69.22
2022-08-27T21:16:24.963Z,69.15
2022-08-27T21:18:53.687Z,68.48
2022-08-27T21:21:20.721Z,68.18
2022-08-27T21:23:48.782Z,68.76
2022-08-27T21:26:20.114Z,68.99
2022-08-27T21:28:49.261Z,69.03
2022-08-27T21:31:22.655Z,69.01
2022-08-27T21:33:52.229Z,69.30
2022-08-27T21:36:19.294Z,69.65
2022-08-27T21:38:46.211Z,69.24
2022-08-27T21:41:16.123Z,69.27
2022-08-27T21:43:43.047Z,69.69
2022-08-27T21:46:12.068Z,69.57
2022-08-27T21:48:41.667Z,69.16
2022-08-27T21:51:15.490Z,70.12
2022-08-27T21:53:54.914Z,69.83
2022-08-27T21:56:21.814Z,70.36
2022-08-27T21:58:48.703Z,70.51
2022-08-27T22:01:22.861Z,70.32
2022-08-27T22:03:55.214Z,70.40
2022-08-27T22:06:24.456Z,70.71
2022-08-27T22:08:51.302Z,70.90
2022-08-27T22:11:21.997Z,70.32
2022-08-27T22:13:51.475Z,69.85
2022-08-27T22:16:18.531Z,70.10
2022-08-27T22:18:45.568Z,70.40
2022-08-27T22:21:12.650Z,70.77
2022-08-27T22:23:39.605Z,70.93
2022-08-27T22:26:11.958Z,70.97
2022-08-27T22:28:40.948Z,71.57
2022-08-27T22:31:08.268Z,72.12
2022-08-27T22:33:35.247Z,71.18
2022-08-27T22:36:02.373Z,71.42
2022-08-27T22:38:29.320Z,71.78
2022-08-27T22:40:56.289Z,72.05
2022-08-27T22:43:26.194Z,72.55
2022-08-27T22:45:53.101Z,71.99
2022-08-27T22:48:20.023Z,72.35
2022-08-27T22:50:46.960Z,72.39
2022-08-27T22:53:16.314Z,72.53
2022-08-27T22:55:49.866Z,72.23
2022-08-27T22:58:24.380Z,72.74
2022-08-27T23:00:56.693Z,72.55
2022-08-27T23:03:23.612Z,72.16
2022-08-27T23:05:50.589Z,72.48
2022-08-27T23:08:19.750Z,72.28
2022-08-27T23:10:46.639Z,72.44
2022-08-27T23:13:15.921Z,72.22
2022-08-27T23:15:42.928Z,73.16
2022-08-27T23:18:12.360Z,74.01
2022-08-27T23:20:41.957Z,74.08
2022-08-27T23:23:10.139Z,74.49
2022-08-27T23:25:56.432Z,74.29
2022-08-27T23:28:23.906Z,74.14
2022-08-27T23:30:52.965Z,74.35
2022-08-27T23:33:20.100Z,74.80
2022-08-27T23:35:50.321Z,74.51
2022-08-27T23:38:19.596Z,74.02
2022-08-27T23:40:48.163Z,74.37
2022-08-27T23:43:16.766Z,74.38
2022-08-27T23:45:43.816Z,74.38
2022-08-27T23:48:11.290Z,74.43
2022-08-27T23:50:38.893Z,74.93
2022-08-27T23:53:07.345Z,75.70
2022-08-27T23:55:38.493Z,74.59
2022-08-27T23:58:06.838Z,75.06
